Accueil
METAR-TAF:

METAR-TAF

Aéroports :

Weeze, Allemagne

Aéroport de Weeze

latitude: 51-36-09N, longitude: 006-08-32E, altitude: 32 m

Observation

Le bulletin a été fait il y a 43 minutes, à 16:50 UTC
Vent 4 kt de sud-est
Température 18°C
Humidité 59%
Pression 1020 hPa
Visibilité 10 km ou plus
pas de nuages en-dessous de 1500 mètres et pas de cumulonimbus.

METAR: EDLV 211650Z 14004KT CAVOK 18/10 Q1020

Heure: 19:33 (17:33 UTC)

Prévision

Le bulletin a été fait il y a 6 heures et 33 minutes, à 11:00 UTC
Prévision valable du 21 à 12 UTC au 22 à 12 UTC
Vent 4 kt de sud/sud-est
Visibilité 10 km ou plus
pas de nuages en-dessous de 1500 mètres et pas de cumulonimbus.
Evoluant progressivement
du 22 à 09 UTC au 22 à 12 UTC
Vent 5 kt de sud-ouest

TAF: EDLV 211100Z 2112/2212 16004KT CAVOK BECMG 2209/2212 23005KT

Observations et prévisions météorologiques de plus de 4000 aéroports (messages METAR et TAF).

Les stations disponibles sont représentées par des disques jaunes et rouges sur la carte.

Passer la souris dessus pour voir le nom de la station.

Cliquer dessus pour voir les observations et prévisions météorologiques.

Pour changer de carte: cliquez sur les boutons verts avec une croix noire pour zoomer, sur le bouton vert avec un tiret pour effectuer un zoom arrière, ou sur les flèches vertes pour les cartes adjacentes.


METAR-TAF: